American United — WDF9634 — position and weather

sailwx.info

Track history (hours):
 
Tides and Currents Weather Stations Pressure Air Temp Water Temp Dewpoint Dewpoint Depression Visibility Wind Speed Wind Dir Waves Ship Positions

American United

Owner: Massport Fire Rescue, East Boston, MA. More information available from US FCC via Universal Licensing System and Coast Guard Vessel Documentation Center.

Last reported at 2017-Dec-07 20:03 UTC. Time now 2017-Dec-11 02:29 UTC.
Position N 42°21' W 071°02'.

Type: SAR. MMSI: 367507210.

Date/timePositionNaut miles runAvg speedWind from/ knotsBaromVisibWave heightAir tempDewpointWater temp
2017-Dec-07 20:03N 42°21' W 071°02'2 7.7
2017-Dec-07 19:45N 42°21' W 070°59'3 7.2
2017-Dec-07 19:18N 42°19' W 070°56'3 9.4
2017-Dec-07 18:58N 42°20' W 070°59'3 5.9
2017-Dec-07 18:28N 42°22' W 071°03'1 1.1
2017-Dec-07 18:00N 42°22' W 071°03'1 0.1
2017-Dec-06 20:38N 42°22' W 071°02'  
2017-Dec-03 15:22N 42°22' W 071°02'2 2.8
2017-Dec-03 14:47N 42°23' W 071°00'3 5.6
2017-Dec-03 14:18N 42°20' W 070°59'2 1.7
2017-Dec-03 12:57N 42°22' W 071°02'0 0.0
2017-Dec-01 19:40N 42°22' W 071°02'2 8.1
2017-Dec-01 19:23N 42°21' W 070°59'1 1.5
2017-Dec-01 18:44N 42°20' W 070°59'2 0.4
2017-Dec-01 13:01N 42°22' W 071°02'0 0.0
2017-Dec-01 12:59N 42°22' W 071°02'0 0.0
2017-Dec-01 12:28N 42°22' W 071°02'0 0.0
2017-Dec-01 11:59N 42°22' W 071°02'0 0.0
2017-Dec-01 11:30N 42°22' W 071°02'0 0.0
2017-Dec-01 11:00N 42°22' W 071°02'0 0.0
2017-Dec-01 10:30N 42°22' W 071°02'0 0.0
2017-Nov-30 13:27N 42°22' W 071°02'0 0.0
2017-Nov-30 12:57N 42°22' W 071°02'0 0.0
2017-Nov-30 12:19N 42°22' W 071°02'0 0.0
2017-Nov-30 11:58N 42°22' W 071°02'0 0.0
2017-Nov-30 11:29N 42°22' W 071°02'0 0.0
2017-Nov-30 10:56N 42°22' W 071°02'0 0.0
2017-Nov-30 10:29N 42°22' W 071°02'0 0.0
2017-Nov-30 10:00N 42°22' W 071°02'0 0.0
2017-Nov-30 09:29N 42°22' W 071°02'0 0.0
2017-Nov-30 09:00N 42°22' W 071°02'0 0.0
2017-Nov-30 08:30N 42°22' W 071°02'0 0.0
2017-Nov-30 07:59N 42°22' W 071°02'0 0.0
2017-Nov-30 07:30N 42°22' W 071°02'0 0.0
2017-Nov-30 07:00N 42°22' W 071°02'0 0.0
2017-Nov-30 06:28N 42°22' W 071°02'0 0.0
2017-Nov-28 15:32N 42°21' W 071°02'3 4.5
2017-Nov-28 14:47N 42°20' W 070°58'  
Track history (hours):
 
Tides and Currents Weather Stations Pressure Air Temp Water Temp Dewpoint Dewpoint Depression Visibility Wind Speed Wind Dir Waves Ship Positions

American United

Owner: Massport Fire Rescue, East Boston, MA. More information available from US FCC via Universal Licensing System and Coast Guard Vessel Documentation Center.

Last reported at 2017-Dec-07 20:03 UTC. Time now 2017-Dec-11 02:29 UTC.
Position N 42°21' W 071°02'.

Type: SAR. MMSI: 367507210.

Date/timePositionNaut miles runAvg speedWind from/ knotsBaromVisibWave heightAir tempDewpointWater temp
2017-Dec-07 20:03N 42°21' W 071°02'2 7.7
2017-Dec-07 19:45N 42°21' W 070°59'3 7.2
2017-Dec-07 19:18N 42°19' W 070°56'3 9.4
2017-Dec-07 18:58N 42°20' W 070°59'3 5.9
2017-Dec-07 18:28N 42°22' W 071°03'1 1.1
2017-Dec-07 18:00N 42°22' W 071°03'1 0.1
2017-Dec-06 20:38N 42°22' W 071°02'  
2017-Dec-03 15:22N 42°22' W 071°02'2 2.8
2017-Dec-03 14:47N 42°23' W 071°00'3 5.6
2017-Dec-03 14:18N 42°20' W 070°59'2 1.7
2017-Dec-03 12:57N 42°22' W 071°02'0 0.0
2017-Dec-01 19:40N 42°22' W 071°02'2 8.1
2017-Dec-01 19:23N 42°21' W 070°59'1 1.5
2017-Dec-01 18:44N 42°20' W 070°59'2 0.4
2017-Dec-01 13:01N 42°22' W 071°02'0 0.0
2017-Dec-01 12:59N 42°22' W 071°02'0 0.0
2017-Dec-01 12:28N 42°22' W 071°02'0 0.0
2017-Dec-01 11:59N 42°22' W 071°02'0 0.0
2017-Dec-01 11:30N 42°22' W 071°02'0 0.0
2017-Dec-01 11:00N 42°22' W 071°02'0 0.0
2017-Dec-01 10:30N 42°22' W 071°02'0 0.0
2017-Nov-30 13:27N 42°22' W 071°02'0 0.0
2017-Nov-30 12:57N 42°22' W 071°02'0 0.0
2017-Nov-30 12:19N 42°22' W 071°02'0 0.0
2017-Nov-30 11:58N 42°22' W 071°02'0 0.0
2017-Nov-30 11:29N 42°22' W 071°02'0 0.0
2017-Nov-30 10:56N 42°22' W 071°02'0 0.0
2017-Nov-30 10:29N 42°22' W 071°02'0 0.0
2017-Nov-30 10:00N 42°22' W 071°02'0 0.0
2017-Nov-30 09:29N 42°22' W 071°02'0 0.0
2017-Nov-30 09:00N 42°22' W 071°02'0 0.0
2017-Nov-30 08:30N 42°22' W 071°02'0 0.0
2017-Nov-30 07:59N 42°22' W 071°02'0 0.0
2017-Nov-30 07:30N 42°22' W 071°02'0 0.0
2017-Nov-30 07:00N 42°22' W 071°02'0 0.0
2017-Nov-30 06:28N 42°22' W 071°02'0 0.0
2017-Nov-28 15:32N 42°21' W 071°02'3 4.5
2017-Nov-28 14:47N 42°20' W 070°58'  

Dump ship's entire track history